20  °C
Temperature
68  °F
Temperature
57  °F
 Dewpoint
14  °C
  Dewpoint
69  %
 Humidity
  Temperature
21  km/h
Wind Speed
11  kts
Wind Speed
13  mph
Wind Speed
5.8  m/s
Wind Speed
150°
South South
East

Wind Speed
Mostly Cloudy
Conditions
Pressure 1005.92 (hPa) - 29.7 (inHG)
Visibility 10.0 (km) - 6.2 (mi)

Sky Conditions
LHBP
Location Budapest Ferenc Liszt International 20 km (12.43 mi)
Metar :LHBP 201030Z 15011KT 130V200 9999 BKN032 20/14 Q1006 TEMPO 20015G25KT 4000 TSRA FEW030CB BKN040
Mon 20th May 11:30 am

Nearest Airport
https://www.checkwx.com/weather/LHBP
  Metar Aviation API Data Provided by https://www.checkwx.com/ Original CSS/SVG/PHP scripts by weather34.com © 2015-2019